createdAt,value
2018-05-01T00:01:10.530Z,99841.89
2018-05-01T00:03:40.207Z,99837.22
2018-05-01T00:06:09.259Z,99833.77
2018-05-01T00:08:37.526Z,99842.44
2018-05-01T00:11:06.310Z,99833.63
2018-05-01T00:13:34.987Z,99830.11
2018-05-01T00:16:03.262Z,99830.41
2018-05-01T00:18:31.554Z,99820.78
2018-05-01T00:21:00.623Z,99821.58
2018-05-01T00:23:28.902Z,99813.95
2018-05-01T00:25:57.195Z,99806.03
2018-05-01T00:28:25.496Z,99813.91
2018-05-01T00:30:53.767Z,99813.83
2018-05-01T00:33:22.530Z,99811.66
2018-05-01T00:35:50.948Z,99810.83
2018-05-01T00:38:19.712Z,99806.53
2018-05-01T00:40:48.090Z,99799.08
2018-05-01T00:43:16.359Z,99798.20
2018-05-01T00:45:44.662Z,99795.15
2018-05-01T00:48:13.112Z,99799.31
2018-05-01T00:50:41.383Z,99789.36
2018-05-01T00:53:09.655Z,99789.21
2018-05-01T00:55:38.782Z,99789.39
2018-05-01T00:58:07.485Z,99788.88
2018-05-01T01:00:35.969Z,99785.27
2018-05-01T01:03:04.230Z,99791.95
2018-05-01T01:05:32.492Z,99784.44
2018-05-01T01:08:00.806Z,99783.98
2018-05-01T01:10:29.088Z,99785.16
2018-05-01T01:12:57.375Z,99784.34
2018-05-01T01:15:25.684Z,99784.75
2018-05-01T01:17:55.502Z,99791.06
2018-05-01T01:20:23.855Z,99806.12
2018-05-01T01:22:52.431Z,99790.55
2018-05-01T01:25:20.710Z,99795.49
2018-05-01T01:27:48.974Z,99793.00
2018-05-01T01:30:17.379Z,99783.34
2018-05-01T01:32:45.671Z,99784.60
2018-05-01T01:35:13.167Z,99806.30
2018-05-01T01:37:41.426Z,99819.31
2018-05-01T01:40:10.478Z,99825.70
2018-05-01T01:42:37.997Z,99823.66
2018-05-01T01:45:06.713Z,99828.62
2018-05-01T01:47:34.255Z,99829.49
2018-05-01T01:50:02.502Z,99831.28
2018-05-01T01:52:30.011Z,99820.64
2018-05-01T01:54:57.500Z,99826.09
2018-05-01T01:57:25.280Z,99834.48
2018-05-01T01:59:52.773Z,99829.53
2018-05-01T02:02:21.100Z,99829.22
2018-05-01T02:04:48.760Z,99818.11
2018-05-01T02:07:17.148Z,99830.98
2018-05-01T02:09:44.619Z,99829.73
2018-05-01T02:12:12.275Z,99829.83
2018-05-01T02:14:39.758Z,99828.64
2018-05-01T02:17:08.014Z,99827.48
2018-05-01T02:19:35.508Z,99829.00
2018-05-01T02:22:03.802Z,99819.88
2018-05-01T02:24:31.295Z,99833.64
2018-05-01T02:26:58.778Z,99836.94
2018-05-01T02:29:26.307Z,99827.42
2018-05-01T02:31:55.109Z,99831.11
2018-05-01T02:34:22.542Z,99831.65
2018-05-01T02:36:50.110Z,99828.35
2018-05-01T02:39:17.899Z,99826.75
2018-05-01T02:41:45.526Z,99827.58
2018-05-01T02:44:13.022Z,99830.31
2018-05-01T02:46:40.512Z,99829.95
2018-05-01T02:49:08.851Z,99825.83
2018-05-01T02:51:36.351Z,99826.66
2018-05-01T02:54:05.517Z,99831.73
2018-05-01T02:56:33.043Z,99823.84
2018-05-01T02:59:00.516Z,99838.39
2018-05-01T03:01:28.109Z,99833.84
2018-05-01T03:03:55.636Z,99823.53
2018-05-01T03:06:23.139Z,99826.86
2018-05-01T03:08:50.631Z,99835.62
2018-05-01T03:11:18.406Z,99828.91
2018-05-01T03:13:46.268Z,99826.42
2018-05-01T03:16:13.738Z,99832.71
2018-05-01T03:18:41.278Z,99839.81
2018-05-01T03:21:08.758Z,99837.81
2018-05-01T03:23:36.272Z,99842.38
2018-05-01T03:26:03.998Z,99845.66
2018-05-01T03:28:31.486Z,99844.88
2018-05-01T03:30:59.722Z,99839.52
2018-05-01T03:33:27.235Z,99830.35
2018-05-01T03:35:55.788Z,99834.58
2018-05-01T03:38:23.265Z,99830.03
2018-05-01T03:40:50.779Z,99831.25
2018-05-01T03:43:18.270Z,99826.30
2018-05-01T03:45:45.814Z,99838.32
2018-05-01T03:48:13.562Z,99834.61
2018-05-01T03:50:41.074Z,99834.21
2018-05-01T03:53:08.539Z,99835.91
2018-05-01T03:55:37.264Z,99845.88
2018-05-01T03:58:04.734Z,99848.34
2018-05-01T04:00:32.215Z,99850.42
2018-05-01T04:02:59.697Z,99849.59
2018-05-01T04:05:27.170Z,99852.13
2018-05-01T04:07:55.490Z,99859.23
2018-05-01T04:10:24.515Z,99862.13
2018-05-01T04:12:51.996Z,99869.33
2018-05-01T04:15:20.256Z,99870.98
2018-05-01T04:17:48.341Z,99873.10
2018-05-01T04:20:16.675Z,99871.52
2018-05-01T04:22:44.150Z,99869.91
2018-05-01T04:25:11.792Z,99878.72
2018-05-01T04:27:39.258Z,99890.78
2018-05-01T04:30:06.807Z,99888.73
2018-05-01T04:32:34.366Z,99897.03
2018-05-01T04:35:01.852Z,99894.98
2018-05-01T04:37:30.156Z,99900.38
2018-05-01T04:39:57.642Z,99897.06
2018-05-01T04:42:25.119Z,99896.64
2018-05-01T04:44:53.076Z,99887.53
2018-05-01T04:47:20.542Z,99892.52
2018-05-01T04:49:48.110Z,99899.55
2018-05-01T04:52:15.585Z,99902.84
2018-05-01T04:54:43.066Z,99896.20
2018-05-01T04:57:10.605Z,99887.11
2018-05-01T04:59:38.358Z,99898.30
2018-05-01T05:02:05.826Z,99899.98
2018-05-01T05:04:34.194Z,99904.53
2018-05-01T05:07:01.706Z,99903.31
2018-05-01T05:09:29.184Z,99915.34
2018-05-01T05:11:57.497Z,99921.97
2018-05-01T05:14:25.179Z,99900.00
2018-05-01T05:16:52.642Z,99909.55
2018-05-01T05:19:20.113Z,99911.64
2018-05-01T05:21:47.623Z,99914.55
2018-05-01T05:24:15.404Z,99918.72
2018-05-01T05:26:42.874Z,99913.75
2018-05-01T05:29:10.356Z,99917.88
2018-05-01T05:31:37.838Z,99924.91
2018-05-01T05:34:06.086Z,99915.80
2018-05-01T05:36:34.502Z,99911.26
2018-05-01T05:39:02.769Z,99913.31
2018-05-01T05:41:30.998Z,99925.34
2018-05-01T05:43:58.818Z,99912.50
2018-05-01T05:46:27.073Z,99908.35
2018-05-01T05:48:56.191Z,99920.77
2018-05-01T05:51:23.689Z,99914.58
2018-05-01T05:53:51.263Z,99907.11
2018-05-01T05:56:18.900Z,99918.70
2018-05-01T05:58:46.467Z,99913.30
2018-05-01T06:01:13.967Z,99920.32
2018-05-01T06:03:41.487Z,99920.25
2018-05-01T06:06:08.963Z,99914.46
2018-05-01T06:08:36.438Z,99923.97
2018-05-01T06:11:03.970Z,99918.97
2018-05-01T06:13:31.498Z,99916.50
2018-05-01T06:15:58.939Z,99918.13
2018-05-01T06:18:27.219Z,99922.69
2018-05-01T06:20:55.452Z,99929.36
2018-05-01T06:23:23.024Z,99926.88
2018-05-01T06:25:50.563Z,99929.78
2018-05-01T06:28:18.876Z,99920.27
2018-05-01T06:30:46.394Z,99921.45
2018-05-01T06:33:13.875Z,99925.22
2018-05-01T06:35:41.352Z,99935.52
2018-05-01T06:38:08.886Z,99933.05
2018-05-01T06:40:37.199Z,99931.36
2018-05-01T06:43:04.690Z,99925.15
2018-05-01T06:45:32.275Z,99932.59
2018-05-01T06:47:59.775Z,99936.35
2018-05-01T06:50:28.133Z,99933.84
2018-05-01T06:52:55.608Z,99937.98
2018-05-01T06:55:23.139Z,99937.94
2018-05-01T06:57:50.718Z,99936.72
2018-05-01T07:00:18.112Z,99925.49
2018-05-01T07:02:46.334Z,99942.87
2018-05-01T07:05:13.835Z,99928.78
2018-05-01T07:07:41.322Z,99940.37
2018-05-01T07:10:09.964Z,99939.91
2018-05-01T07:12:37.490Z,99945.65
2018-05-01T07:15:05.218Z,99930.80
2018-05-01T07:17:33.458Z,99925.40
2018-05-01T07:20:01.208Z,99926.98
2018-05-01T07:22:28.886Z,99912.92
2018-05-01T07:24:56.437Z,99929.88
2018-05-01T07:27:24.020Z,99928.25
2018-05-01T07:29:51.642Z,99913.72
2018-05-01T07:32:19.119Z,99933.50
2018-05-01T07:34:46.663Z,99925.63
2018-05-01T07:37:15.457Z,99925.17
2018-05-01T07:39:43.026Z,99936.70
2018-05-01T07:42:10.578Z,99932.14
2018-05-01T07:44:38.247Z,99933.79
2018-05-01T07:47:05.841Z,99930.90
2018-05-01T07:49:33.410Z,99933.77
2018-05-01T07:52:01.787Z,99930.48
2018-05-01T07:54:29.395Z,99950.70
2018-05-01T07:56:56.986Z,99941.16
2018-05-01T07:59:25.311Z,99932.48
2018-05-01T08:01:53.544Z,99939.49
2018-05-01T08:04:21.889Z,99946.11
2018-05-01T08:06:49.375Z,99957.67
2018-05-01T08:09:17.254Z,99951.89
2018-05-01T08:11:44.793Z,99958.11
2018-05-01T08:14:12.347Z,99947.78
2018-05-01T08:16:39.910Z,99952.36
2018-05-01T08:19:07.591Z,99961.86
2018-05-01T08:21:35.063Z,99960.58
2018-05-01T08:24:02.588Z,99979.62
2018-05-01T08:26:30.454Z,99973.89
2018-05-01T08:28:57.927Z,99980.44
2018-05-01T08:31:25.498Z,99992.47
2018-05-01T08:33:52.990Z,99992.87
2018-05-01T08:36:20.612Z,99985.39
2018-05-01T08:38:48.988Z,99997.78
2018-05-01T08:41:16.474Z,99992.03
2018-05-01T08:43:43.977Z,100000.25
2018-05-01T08:46:11.571Z,100012.28
2018-05-01T08:48:39.058Z,100006.50
2018-05-01T08:51:07.157Z,100012.73
2018-05-01T08:53:35.473Z,100007.73
2018-05-01T08:56:03.367Z,100011.95
2018-05-01T08:58:31.054Z,100014.44
2018-05-01T09:00:58.746Z,100017.28
2018-05-01T09:03:26.360Z,100014.82
2018-05-01T09:05:53.970Z,100039.17
2018-05-01T09:08:21.491Z,100032.98
2018-05-01T09:10:48.985Z,100042.11
2018-05-01T09:13:16.482Z,100029.27
2018-05-01T09:15:44.094Z,100040.92
2018-05-01T09:18:12.498Z,100040.95
2018-05-01T09:20:40.102Z,100052.53
2018-05-01T09:23:07.782Z,100040.53
2018-05-01T09:25:35.314Z,100061.64
2018-05-01T09:28:02.861Z,100056.70
2018-05-01T09:30:30.681Z,100067.33
2018-05-01T09:32:59.015Z,100062.42
2018-05-01T09:35:26.500Z,100062.84
2018-05-01T09:37:53.984Z,100076.48
2018-05-01T09:40:22.307Z,100069.52
2018-05-01T09:42:49.792Z,100076.55
2018-05-01T09:45:17.291Z,100081.50
2018-05-01T09:47:45.565Z,100079.86
2018-05-01T09:50:13.117Z,100081.10
2018-05-01T09:52:42.994Z,100074.06
2018-05-01T09:55:11.359Z,100093.92
2018-05-01T09:57:40.459Z,100088.18
2018-05-01T10:00:08.745Z,100079.48
2018-05-01T10:02:37.048Z,100103.05
2018-05-01T10:05:05.314Z,100108.47
2018-05-01T10:07:34.118Z,100103.08
2018-05-01T10:10:02.958Z,100105.14
2018-05-01T10:12:31.579Z,100106.43
2018-05-01T10:15:00.211Z,100119.25
2018-05-01T10:17:29.030Z,100112.27
2018-05-01T10:19:57.563Z,100128.00
2018-05-01T10:22:26.724Z,100124.73
2018-05-01T10:24:55.005Z,100129.76
2018-05-01T10:27:23.276Z,100129.42
2018-05-01T10:29:51.606Z,100137.75
2018-05-01T10:32:19.946Z,100138.95
2018-05-01T10:34:49.653Z,100144.66
2018-05-01T10:37:19.164Z,100142.63
2018-05-01T10:39:47.524Z,100144.76
2018-05-01T10:42:16.006Z,100145.09
2018-05-01T10:44:44.279Z,100126.93
2018-05-01T10:47:12.540Z,100155.53
2018-05-01T10:49:41.663Z,100160.52
2018-05-01T10:52:10.031Z,100163.42
2018-05-01T10:54:38.340Z,100168.48
2018-05-01T10:57:06.694Z,100180.48
2018-05-01T10:59:36.059Z,100176.34
2018-05-01T11:02:05.185Z,100178.84
2018-05-01T11:04:33.726Z,100172.66
2018-05-01T11:07:02.881Z,100177.64
2018-05-01T11:09:31.835Z,100202.06
2018-05-01T11:12:00.175Z,100212.02
2018-05-01T11:14:29.089Z,100215.30
2018-05-01T11:16:58.146Z,100215.41
2018-05-01T11:19:26.773Z,100215.76
2018-05-01T11:21:56.232Z,100215.38
2018-05-01T11:24:25.119Z,100226.59
2018-05-01T11:26:53.967Z,100239.88
2018-05-01T11:29:23.117Z,100230.83
2018-05-01T11:31:51.474Z,100245.75
2018-05-01T11:34:19.748Z,100252.43
2018-05-01T11:36:48.022Z,100259.16
2018-05-01T11:39:16.911Z,100268.26
2018-05-01T11:41:45.178Z,100262.44
2018-05-01T11:44:13.574Z,100272.77
2018-05-01T11:46:41.971Z,100282.39
2018-05-01T11:49:10.241Z,100310.19
2018-05-01T11:51:38.983Z,100293.20
2018-05-01T11:54:07.506Z,100302.33
2018-05-01T11:56:35.802Z,100314.77
2018-05-01T11:59:04.059Z,100319.00
2018-05-01T12:01:33.290Z,100318.18
2018-05-01T12:04:02.342Z,100320.68
2018-05-01T12:06:30.630Z,100324.89
2018-05-01T12:09:00.499Z,100339.38
2018-05-01T12:11:29.298Z,100340.20
2018-05-01T12:13:59.193Z,100348.97
2018-05-01T12:16:27.538Z,100361.33
2018-05-01T12:18:55.880Z,100353.84
2018-05-01T12:21:25.486Z,100385.34
2018-05-01T12:23:54.827Z,100372.14
2018-05-01T12:26:24.677Z,100382.92
2018-05-01T12:28:52.978Z,100384.95
2018-05-01T12:31:21.256Z,100391.16
2018-05-01T12:33:49.891Z,100395.77
2018-05-01T12:36:18.175Z,100399.06
2018-05-01T12:38:46.552Z,100401.97
2018-05-01T12:41:15.564Z,100410.77
2018-05-01T12:43:43.849Z,100408.55
2018-05-01T12:46:12.238Z,100413.55
2018-05-01T12:48:40.738Z,100408.92
2018-05-01T12:51:10.496Z,100413.91
2018-05-01T12:53:39.007Z,100438.29
2018-05-01T12:56:08.121Z,100436.13
2018-05-01T12:58:36.819Z,100454.14
2018-05-01T13:01:05.861Z,100451.18
2018-05-01T13:03:34.490Z,100450.32
2018-05-01T13:06:03.583Z,100453.16
2018-05-01T13:08:33.048Z,100461.87
2018-05-01T13:11:02.431Z,100456.02
2018-05-01T13:13:31.041Z,100468.12
2018-05-01T13:15:59.959Z,100465.13
2018-05-01T13:18:28.319Z,100469.75
2018-05-01T13:20:56.611Z,100481.84
2018-05-01T13:23:24.918Z,100496.81
2018-05-01T13:25:54.251Z,100493.86
2018-05-01T13:28:23.322Z,100518.31
2018-05-01T13:30:53.186Z,100508.31
2018-05-01T13:33:22.386Z,100520.78
2018-05-01T13:35:50.683Z,100516.61
2018-05-01T13:38:19.055Z,100520.38
2018-05-01T13:40:47.346Z,100548.55
2018-05-01T13:43:16.359Z,100533.33
2018-05-01T13:45:44.678Z,100537.91
2018-05-01T13:48:13.626Z,100537.50
2018-05-01T13:50:41.894Z,100538.34
2018-05-01T13:53:10.335Z,100540.01
2018-05-01T13:55:38.617Z,100558.67
2018-05-01T13:58:07.495Z,100567.41
2018-05-01T14:00:36.557Z,100561.54
2018-05-01T14:03:04.822Z,100567.34
2018-05-01T14:05:33.729Z,100581.84
2018-05-01T14:08:02.023Z,100575.98
2018-05-01T14:10:30.287Z,100577.23
2018-05-01T14:12:59.426Z,100585.95
2018-05-01T14:15:28.381Z,100585.97
2018-05-01T14:17:58.111Z,100595.09
2018-05-01T14:20:26.408Z,100593.86
2018-05-01T14:22:54.697Z,100604.20
2018-05-01T14:25:22.987Z,100599.28
2018-05-01T14:27:51.336Z,100608.85
2018-05-01T14:30:19.957Z,100618.33
2018-05-01T14:32:48.255Z,100616.95
2018-05-01T14:35:17.314Z,100617.78
2018-05-01T14:37:45.674Z,100625.28
2018-05-01T14:40:14.796Z,100620.44
2018-05-01T14:42:43.058Z,100632.72
2018-05-01T14:45:11.352Z,100645.94
2018-05-01T14:47:40.079Z,100649.14
2018-05-01T14:50:09.705Z,100659.62
2018-05-01T14:52:37.989Z,100657.02
2018-05-01T14:55:06.328Z,100660.28
2018-05-01T14:57:35.195Z,100656.59
2018-05-01T15:00:03.479Z,100654.11
2018-05-01T15:02:34.560Z,100692.37
2018-05-01T15:05:03.598Z,100669.33
2018-05-01T15:07:31.987Z,100672.22
2018-05-01T15:10:00.299Z,100678.08
2018-05-01T15:12:28.598Z,100676.39
2018-05-01T15:14:59.226Z,100692.62
2018-05-01T15:17:28.986Z,100684.34
2018-05-01T15:19:57.263Z,100693.94
2018-05-01T15:22:25.576Z,100700.22
2018-05-01T15:24:54.285Z,100707.70
2018-05-01T15:27:23.927Z,100700.20
2018-05-01T15:29:52.267Z,100703.42
2018-05-01T15:32:20.495Z,100716.26
2018-05-01T15:34:49.521Z,100708.30
2018-05-01T15:37:17.980Z,100721.95
2018-05-01T15:39:46.349Z,100733.10
2018-05-01T15:42:14.622Z,100724.34
2018-05-01T15:44:44.373Z,100728.03
2018-05-01T15:47:12.757Z,100738.09
2018-05-01T15:49:41.483Z,100745.62
2018-05-01T15:52:09.984Z,100731.98
2018-05-01T15:54:39.059Z,100745.71
2018-05-01T15:57:07.680Z,100759.88
2018-05-01T15:59:36.893Z,100759.08
2018-05-01T16:02:05.167Z,100762.05
2018-05-01T16:04:34.515Z,100774.94
2018-05-01T16:07:03.758Z,100769.55
2018-05-01T16:09:32.787Z,100770.92
2018-05-01T16:12:01.853Z,100782.52
2018-05-01T16:14:30.267Z,100790.52
2018-05-01T16:16:58.796Z,100793.97
2018-05-01T16:19:27.811Z,100790.31
2018-05-01T16:21:56.184Z,100803.63
2018-05-01T16:24:24.472Z,100807.70
2018-05-01T16:26:52.852Z,100801.92
2018-05-01T16:29:21.132Z,100797.48
2018-05-01T16:31:49.411Z,100806.71
2018-05-01T16:34:18.117Z,100808.37
2018-05-01T16:36:46.423Z,100809.33
2018-05-01T16:39:15.707Z,100810.93
2018-05-01T16:41:45.253Z,100815.48
2018-05-01T16:44:13.868Z,100814.17
2018-05-01T16:46:42.674Z,100819.52
2018-05-01T16:49:10.944Z,100820.35
2018-05-01T16:51:40.143Z,100825.38
2018-05-01T16:54:08.428Z,100828.64
2018-05-01T16:56:36.700Z,100832.46
2018-05-01T16:59:05.060Z,100834.11
2018-05-01T17:01:33.338Z,100825.75
2018-05-01T17:04:01.606Z,100828.21
2018-05-01T17:06:30.207Z,100840.43
2018-05-01T17:08:58.662Z,100841.66
2018-05-01T17:11:27.459Z,100840.02
2018-05-01T17:13:56.459Z,100837.05
2018-05-01T17:16:24.747Z,100843.33
2018-05-01T17:18:53.022Z,100847.56
2018-05-01T17:21:22.054Z,100853.31
2018-05-01T17:23:50.329Z,100852.08
2018-05-01T17:26:19.435Z,100860.73
2018-05-01T17:28:47.731Z,100862.81
2018-05-01T17:31:16.000Z,100863.65
2018-05-01T17:33:45.807Z,100864.41
2018-05-01T17:36:14.883Z,100871.13
2018-05-01T17:38:43.150Z,100877.41
2018-05-01T17:41:11.706Z,100880.27
2018-05-01T17:43:39.989Z,100879.11
2018-05-01T17:46:08.582Z,100887.14
2018-05-01T17:48:36.847Z,100890.95
2018-05-01T17:51:05.142Z,100885.55
2018-05-01T17:53:34.212Z,100895.20
2018-05-01T17:56:02.479Z,100892.33
2018-05-01T17:58:30.762Z,100897.41
2018-05-01T18:00:59.382Z,100895.51
2018-05-01T18:03:29.105Z,100901.00
2018-05-01T18:05:58.011Z,100905.91
2018-05-01T18:08:26.469Z,100909.61
2018-05-01T18:10:54.835Z,100914.52
2018-05-01T18:13:23.220Z,100923.30
2018-05-01T18:15:51.496Z,100928.28
2018-05-01T18:18:19.817Z,100924.92
2018-05-01T18:20:48.081Z,100934.92
2018-05-01T18:23:17.156Z,100937.77
2018-05-01T18:25:45.453Z,100943.59
2018-05-01T18:28:14.270Z,100945.73
2018-05-01T18:30:44.811Z,100943.11
2018-05-01T18:33:13.935Z,100948.97
2018-05-01T18:35:43.235Z,100954.17
2018-05-01T18:38:12.117Z,100955.78
2018-05-01T18:40:40.699Z,100963.26
2018-05-01T18:43:09.766Z,100965.19
2018-05-01T18:45:38.811Z,100979.31
2018-05-01T18:48:07.174Z,100977.11
2018-05-01T18:50:40.088Z,100983.20
2018-05-01T18:53:03.840Z,100985.22
2018-05-01T18:55:32.231Z,100994.62
2018-05-01T18:58:00.630Z,100999.95
2018-05-01T19:00:29.774Z,101000.81
2018-05-01T19:02:59.526Z,101009.89
2018-05-01T19:05:27.831Z,101013.52
2018-05-01T19:07:56.094Z,101019.28
2018-05-01T19:10:24.433Z,101027.09
2018-05-01T19:12:52.686Z,101028.58
2018-05-01T19:15:21.761Z,101035.53
2018-05-01T19:17:50.859Z,101040.06
2018-05-01T19:20:19.516Z,101041.67
2018-05-01T19:22:48.625Z,101048.61
2018-05-01T19:25:16.886Z,101053.52
2018-05-01T19:27:45.208Z,101060.06
2018-05-01T19:30:13.559Z,101062.50
2018-05-01T19:32:41.819Z,101069.41
2018-05-01T19:35:10.459Z,101066.06
2018-05-01T19:37:40.157Z,101078.00
2018-05-01T19:40:08.455Z,101076.35
2018-05-01T19:42:37.501Z,101077.47
2018-05-01T19:45:05.796Z,101085.53
2018-05-01T19:47:34.615Z,101088.44
2018-05-01T19:50:03.658Z,101089.56
2018-05-01T19:52:31.964Z,101091.81
2018-05-01T19:55:00.617Z,101094.31
2018-05-01T19:57:28.902Z,101098.42
2018-05-01T19:59:57.786Z,101099.14
2018-05-01T20:02:26.578Z,101092.06
2018-05-01T20:04:54.870Z,101099.49
2018-05-01T20:07:23.187Z,101093.09
2018-05-01T20:09:53.769Z,101086.38
2018-05-01T20:12:22.759Z,101086.85
2018-05-01T20:14:51.470Z,101090.44
2018-05-01T20:17:20.030Z,101085.79
2018-05-01T20:19:48.330Z,101087.73
2018-05-01T20:22:16.825Z,101082.30
2018-05-01T20:24:45.869Z,101078.00
2018-05-01T20:27:14.158Z,101068.86
2018-05-01T20:29:42.627Z,101077.13
2018-05-01T20:32:11.287Z,101076.31
2018-05-01T20:34:41.454Z,101070.81
2018-05-01T20:37:09.854Z,101067.44
2018-05-01T20:39:38.143Z,101061.43
2018-05-01T20:42:06.443Z,101060.56
2018-05-01T20:44:36.871Z,101060.84
2018-05-01T20:47:06.780Z,101059.91
2018-05-01T20:49:36.334Z,101065.34
2018-05-01T20:52:04.619Z,101063.70
2018-05-01T20:54:33.063Z,101069.00
2018-05-01T20:57:02.116Z,101072.90
2018-05-01T20:59:30.896Z,101082.34
2018-05-01T21:01:59.389Z,101087.61
2018-05-01T21:04:28.515Z,101089.87
2018-05-01T21:06:57.533Z,101088.94
2018-05-01T21:09:25.832Z,101087.61
2018-05-01T21:11:54.225Z,101097.81
2018-05-01T21:14:24.149Z,101106.42
2018-05-01T21:16:53.946Z,101113.75
2018-05-01T21:19:22.974Z,101122.61
2018-05-01T21:21:51.847Z,101131.95
2018-05-01T21:24:20.135Z,101130.86
2018-05-01T21:26:48.500Z,101146.09
2018-05-01T21:29:16.767Z,101150.52
2018-05-01T21:31:45.102Z,101159.01
2018-05-01T21:34:14.259Z,101162.63
2018-05-01T21:36:42.546Z,101168.07
2018-05-01T21:39:11.511Z,101160.67
2018-05-01T21:41:39.803Z,101163.97
2018-05-01T21:44:08.190Z,101160.97
2018-05-01T21:46:36.500Z,101158.61
2018-05-01T21:49:05.047Z,101171.33
2018-05-01T21:51:33.352Z,101179.22
2018-05-01T21:54:01.730Z,101176.34
2018-05-01T21:56:31.384Z,101182.73
2018-05-01T21:58:59.808Z,101179.73
2018-05-01T22:01:28.075Z,101183.78
2018-05-01T22:03:57.163Z,101191.55
2018-05-01T22:06:25.991Z,101195.19
2018-05-01T22:08:54.271Z,101200.83
2018-05-01T22:11:23.067Z,101200.08
2018-05-01T22:13:51.733Z,101205.39
2018-05-01T22:16:20.649Z,101212.83
2018-05-01T22:18:49.721Z,101216.34
2018-05-01T22:21:18.684Z,101220.84
2018-05-01T22:23:46.948Z,101221.59
2018-05-01T22:26:15.226Z,101219.05
2018-05-01T22:28:43.593Z,101225.38
2018-05-01T22:31:12.066Z,101223.39
2018-05-01T22:33:41.098Z,101226.35
2018-05-01T22:36:09.399Z,101225.53
2018-05-01T22:38:38.149Z,101231.51
2018-05-01T22:41:06.408Z,101229.58
2018-05-01T22:43:35.552Z,101237.69
2018-05-01T22:46:03.939Z,101240.48
2018-05-01T22:48:32.214Z,101240.09
2018-05-01T22:51:00.645Z,101228.77
2018-05-01T22:53:29.679Z,101238.05
2018-05-01T22:55:58.651Z,101240.64
2018-05-01T22:58:28.594Z,101246.48
2018-05-01T23:00:57.360Z,101253.38
2018-05-01T23:03:27.026Z,101257.77
2018-05-01T23:05:55.363Z,101258.27
2018-05-01T23:08:23.660Z,101258.91
2018-05-01T23:10:51.942Z,101263.40
2018-05-01T23:13:20.943Z,101263.16
2018-05-01T23:15:49.259Z,101258.59
2018-05-01T23:18:18.311Z,101268.74
2018-05-01T23:20:46.587Z,101262.52
2018-05-01T23:23:14.946Z,101271.92
2018-05-01T23:25:43.211Z,101269.77
2018-05-01T23:28:11.488Z,101270.44
2018-05-01T23:30:39.785Z,101273.66
2018-05-01T23:33:08.152Z,101272.16
2018-05-01T23:35:36.434Z,101271.48
2018-05-01T23:38:05.540Z,101273.33
2018-05-01T23:40:34.071Z,101276.19
2018-05-01T23:43:03.810Z,101287.55
2018-05-01T23:45:32.096Z,101292.58
2018-05-01T23:48:00.378Z,101292.20
2018-05-01T23:50:29.098Z,101295.02
2018-05-01T23:52:57.462Z,101299.97
2018-05-01T23:55:25.848Z,101285.28
2018-05-01T23:57:54.212Z,101277.59
